EGPK/PIK METAR and TAF weather

Enter ICAO airport designator
Station Type Date Time Source
EGPK METAR 2022/06/30 13:50 UTC NOAA

EGPK 301350Z 24008KT 9999 -RA FEW021 15/12 Q1010


Station Type Date Time Source
EGPK Decoded METAR 2022/06/30 13:50 UTC NOAA

Prestwick Airport, United Kingdom (EGPK) 55-30N 004-35W 0M
Jun 30, 2022 - 09:50 AM EDT / 2022.06.30 1350 UTC
Wind: from the WSW (240 degrees) at 9 MPH (8 KT):0
Visibility: greater than 7 mile(s):0
Sky conditions: mostly clear
Weather: light rain
Temperature: 59 F (15 C)
Dew Point: 53 F (12 C)
Relative Humidity: 82%
Pressure (altimeter): 29.83 in. Hg (1010 hPa)
ob: EGPK 301350Z 24008KT 9999 -RA FEW021 15/12 Q1010
cycle: 14

Station Type Date Time Source
EGPK TAF 2022/06/30 14:00 UTC NOAA

TAF
AMD EGPK 301356Z 3014/0112 26010KT 9999 FEW040
TEMPO 3014/3019 6000 SHRA PROB30
TEMPO 3014/3018 3000 +SHRA TS BKN014CB
BECMG 3021/3024 09004KT PROB30
TEMPO 0104/0108 7000 SHRA BKN014
BECMG 0107/0110 26010KT PROB40
TEMPO 0108/0112 7000 SHRA

Example: see airport list